Time;durP1;ratioP1;P1;durP2;ratioP2;P2;SDS_P1;SDS_P2;PMS_P1;PMS_P2;Temp;Humidity;BMP_temperature;BMP_pressure;BME280_temperature;BME280_humidity;BME280_pressure;Samples;Min_cycle;Max_cycle;Signal;HPM_P1;HPM_P2
2023/03/20 00:00:43;;;;;;;3.17;2.87;;;10.00;99.90;;;;;;5041812;28;20204;-83
2023/03/20 00:03:10;;;;;;;2.70;2.50;;;10.00;99.90;;;;;;5042317;28;20253;-83
2023/03/20 00:05:36;;;;;;;2.63;2.43;;;10.10;99.90;;;;;;5042004;28;20270;-82
2023/03/20 00:08:02;;;;;;;2.60;2.40;;;10.20;99.90;;;;;;5042125;28;20197;-84
2023/03/20 00:10:34;;;;;;;2.80;2.60;;;10.30;99.90;;;;;;5052884;28;20224;-84
2023/03/20 00:13:00;;;;;;;2.90;2.70;;;10.40;99.90;;;;;;5041433;28;20181;-87
2023/03/20 00:15:30;;;;;;;2.50;2.30;;;10.50;99.90;;;;;;5041290;28;20173;-81
2023/03/20 00:17:56;;;;;;;2.47;2.33;;;10.50;99.90;;;;;;5042503;28;20662;-82
2023/03/20 00:20:22;;;;;;;2.60;2.40;;;10.60;99.90;;;;;;5046956;28;20176;-83
2023/03/20 00:22:49;;;;;;;2.30;2.10;;;10.40;99.90;;;;;;5060632;28;20231;-82
2023/03/20 00:25:18;;;;;;;3.17;2.37;;;10.40;99.90;;;;;;5060246;28;20208;-87
2023/03/20 00:27:44;;;;;;;3.80;2.40;;;10.40;99.90;;;;;;5045932;28;20718;-83
2023/03/20 00:30:28;;;;;;;2.47;2.27;;;10.20;99.90;;;;;;5020300;28;20177;-86
2023/03/20 00:32:56;;;;;;;2.80;2.60;;;10.10;99.90;;;;;;5019872;28;20162;-81
2023/03/20 00:35:26;;;;;;;3.30;2.13;;;10.10;99.90;;;;;;5001025;28;20281;-88
2023/03/20 00:37:53;;;;;;;2.30;2.20;;;9.90;99.90;;;;;;5020849;28;20186;-84
2023/03/20 00:40:19;;;;;;;2.47;2.30;;;9.90;99.90;;;;;;5020479;28;20309;-81
2023/03/20 00:42:49;;;;;;;2.50;2.40;;;9.90;99.90;;;;;;5021395;28;20399;-84
2023/03/20 00:45:19;;;;;;;2.53;2.33;;;9.80;99.90;;;;;;5031566;28;20203;-83
2023/03/20 00:47:47;;;;;;;3.07;2.30;;;9.80;99.90;;;;;;5041699;28;20196;-84
2023/03/20 00:50:31;;;;;;;2.63;2.27;;;10.00;99.90;;;;;;5041700;28;20182;-84
2023/03/20 00:52:58;;;;;;;2.50;2.30;;;10.00;99.90;;;;;;5033647;28;20193;-83
2023/03/20 00:55:26;;;;;;;2.30;2.10;;;10.20;99.90;;;;;;5041265;28;20189;-84
2023/03/20 00:57:56;;;;;;;2.17;2.07;;;10.30;99.90;;;;;;5041847;28;20231;-84
2023/03/20 01:00:23;;;;;;;2.17;2.00;;;10.40;99.90;;;;;;5042596;28;20189;-81
2023/03/20 01:02:52;;;;;;;2.57;2.37;;;10.50;99.90;;;;;;5041474;28;20198;-85
2023/03/20 01:05:18;;;;;;;2.60;2.43;;;10.60;99.90;;;;;;5046400;28;20203;-81
2023/03/20 01:07:44;;;;;;;2.93;2.07;;;10.60;99.90;;;;;;5033996;28;20533;-83
2023/03/20 01:10:11;;;;;;;2.60;2.40;;;10.50;99.90;;;;;;5027947;28;20177;-84
2023/03/20 01:12:39;;;;;;;3.03;2.20;;;10.60;99.90;;;;;;5027817;28;20178;-86
2023/03/20 01:15:18;;;;;;;2.67;2.47;;;10.60;99.90;;;;;;5026861;28;20185;-82
2023/03/20 01:17:44;;;;;;;2.30;2.10;;;10.60;99.90;;;;;;5028244;28;20190;-82
2023/03/20 01:20:20;;;;;;;2.43;2.23;;;10.70;99.90;;;;;;5026353;28;20182;-87
2023/03/20 01:22:45;;;;;;;2.40;2.20;;;10.70;99.90;;;;;;5026026;28;20171;-82
2023/03/20 01:25:11;;;;;;;2.60;2.40;;;10.70;99.90;;;;;;5026597;28;20206;-84
2023/03/20 01:27:42;;;;;;;2.20;2.10;;;10.80;99.90;;;;;;5024750;28;20265;-84
2023/03/20 01:30:23;;;;;;;2.80;2.60;;;10.70;99.90;;;;;;5024686;28;20180;-85
2023/03/20 01:32:49;;;;;;;2.27;2.10;;;10.70;99.90;;;;;;5005726;28;20362;-84
2023/03/20 01:35:18;;;;;;;2.70;2.50;;;10.60;99.90;;;;;;5024192;28;20245;-82
2023/03/20 01:37:44;;;;;;;2.50;2.40;;;10.70;99.90;;;;;;5025408;28;20191;-88
2023/03/20 01:40:21;;;;;;;3.10;2.30;;;10.80;99.90;;;;;;5025926;28;20190;-83
2023/03/20 01:42:47;;;;;;;2.67;2.20;;;10.70;99.90;;;;;;5026811;28;20225;-82
2023/03/20 01:45:19;;;;;;;2.63;2.43;;;10.60;99.90;;;;;;5027394;28;20610;-83
2023/03/20 01:47:45;;;;;;;2.30;2.17;;;10.60;99.90;;;;;;5026914;28;20169;-83
2023/03/20 01:50:32;;;;;;;3.13;2.60;;;10.60;99.90;;;;;;5027292;28;20178;-83
2023/03/20 01:53:08;;;;;;;2.30;2.20;;;10.50;99.90;;;;;;5032596;28;20180;-82
2023/03/20 01:55:35;;;;;;;2.83;2.63;;;10.30;99.90;;;;;;5046857;28;20200;-84
2023/03/20 01:58:06;;;;;;;2.60;2.40;;;10.30;99.90;;;;;;5048456;28;20198;-84
2023/03/20 02:00:32;;;;;;;2.60;2.40;;;10.40;99.90;;;;;;5054359;28;20185;-82
2023/03/20 02:02:58;;;;;;;3.13;2.63;;;10.30;99.90;;;;;;5050553;28;20224;-83
2023/03/20 02:05:24;;;;;;;2.40;2.20;;;10.30;99.90;;;;;;5046994;28;20262;-85
2023/03/20 02:08:08;;;;;;;2.57;2.37;;;10.20;99.90;;;;;;5048410;28;20212;-83
2023/03/20 02:10:34;;;;;;;2.73;2.53;;;10.20;99.90;;;;;;5046986;28;20178;-83
2023/03/20 02:13:02;;;;;;;2.80;2.60;;;10.30;99.90;;;;;;5046413;28;20229;-83
2023/03/20 02:15:35;;;;;;;2.73;2.50;;;10.30;99.90;;;;;;5046262;28;20245;-85
2023/03/20 02:18:01;;;;;;;2.77;2.57;;;10.10;99.90;;;;;;5045776;28;20201;-86
2023/03/20 02:20:35;;;;;;;3.10;2.80;;;10.30;99.90;;;;;;5045299;28;20588;-83
2023/03/20 02:23:21;;;;;;;3.80;2.70;;;10.20;99.90;;;;;;5042775;28;20223;-85
2023/03/20 02:26:15;;;;;;;3.37;3.10;;;10.10;99.90;;;;;;5023277;28;20299;-84
2023/03/20 02:28:46;;;;;;;3.33;3.07;;;10.00;99.90;;;;;;5042211;28;20192;-85
2023/03/20 02:31:24;;;;;;;4.20;3.80;;;10.00;99.90;;;;;;5042974;28;20199;-84
2023/03/20 02:34:13;;;;;;;3.50;3.20;;;10.00;99.90;;;;;;5043568;28;20173;-82
2023/03/20 02:37:13;;;;;;;3.97;3.57;;;10.00;99.90;;;;;;5042527;28;20180;-85
2023/03/20 02:39:41;;;;;;;3.67;3.23;;;10.00;99.90;;;;;;5044024;28;20208;-85
2023/03/20 02:42:41;;;;;;;3.63;3.43;;;10.00;99.90;;;;;;5042776;28;20229;-83
2023/03/20 02:45:24;;;;;;;4.00;3.70;;;10.00;99.90;;;;;;5042223;28;20204;-86
2023/03/20 02:48:31;;;;;;;4.57;3.83;;;10.00;99.90;;;;;;5042770;28;20170;-81
2023/03/20 02:51:02;;;;;;;4.53;4.10;;;10.00;99.90;;;;;;4983276;28;20197;-83
2023/03/20 02:53:58;;;;;;;4.73;4.20;;;9.90;99.90;;;;;;5022715;28;20177;-82
2023/03/20 02:56:34;;;;;;;4.97;4.30;;;9.90;99.90;;;;;;5029156;28;20185;-84
2023/03/20 02:59:11;;;;;;;5.33;4.83;;;9.90;99.90;;;;;;5051227;28;20239;-81
2023/03/20 03:01:44;;;;;;;5.27;4.87;;;10.00;99.90;;;;;;5040590;28;20177;-81
2023/03/20 03:04:19;;;;;;;5.50;5.00;;;9.90;99.90;;;;;;5022943;28;20181;-86
2023/03/20 03:06:48;;;;;;;6.00;5.30;;;9.80;99.90;;;;;;5034036;28;20196;-82
2023/03/20 03:09:29;;;;;;;6.77;5.93;;;9.80;99.90;;;;;;5024972;28;20272;-84
2023/03/20 03:12:24;;;;;;;6.90;6.20;;;9.70;99.90;;;;;;5042089;28;20157;-84
2023/03/20 03:14:55;;;;;;;5.43;5.03;;;9.80;99.90;;;;;;5009310;28;20196;-84
2023/03/20 03:17:24;;;;;;;6.63;6.03;;;9.80;99.90;;;;;;5010365;28;20203;-82
2023/03/20 03:19:54;;;;;;;5.57;5.13;;;9.70;99.90;;;;;;5021691;28;20209;-83
2023/03/20 03:22:20;;;;;;;5.93;5.43;;;9.80;99.90;;;;;;5022382;28;20180;-83
2023/03/20 03:24:51;;;;;;;6.07;5.53;;;9.90;99.90;;;;;;5020423;28;20205;-86
2023/03/20 03:27:33;;;;;;;6.80;6.10;;;9.80;99.90;;;;;;5020419;28;20174;-83
2023/03/20 03:30:10;;;;;;;6.93;6.33;;;9.80;99.90;;;;;;5004337;28;20477;-82
2023/03/20 03:32:43;;;;;;;8.03;7.20;;;9.70;99.90;;;;;;5019170;28;20217;-83
2023/03/20 03:35:15;;;;;;;6.47;5.90;;;9.70;99.90;;;;;;5021257;28;20621;-86
2023/03/20 03:38:13;;;;;;;6.63;6.13;;;9.70;99.90;;;;;;5023028;28;20169;-81
2023/03/20 03:40:57;;;;;;;6.40;5.87;;;9.90;99.90;;;;;;4968221;28;20327;-85
2023/03/20 03:43:26;;;;;;;7.33;6.43;;;9.80;99.90;;;;;;5023263;28;20212;-83
2023/03/20 03:45:59;;;;;;;6.80;6.20;;;9.80;99.90;;;;;;5016518;28;20224;-84
2023/03/20 03:48:43;;;;;;;6.43;5.73;;;9.80;99.90;;;;;;5042634;28;20204;-85
2023/03/20 03:51:13;;;;;;;6.17;5.60;;;9.70;99.90;;;;;;5041991;28;20161;-82
2023/03/20 03:53:47;;;;;;;6.33;5.83;;;9.70;99.90;;;;;;5054011;28;20176;-84
2023/03/20 03:56:17;;;;;;;8.57;6.30;;;9.60;99.90;;;;;;5044186;28;20196;-81
2023/03/20 03:58:47;;;;;;;6.73;6.13;;;9.50;99.90;;;;;;5041529;28;20231;-83
2023/03/20 04:01:15;;;;;;;7.40;6.50;;;9.50;99.90;;;;;;5041713;28;20195;-82
2023/03/20 04:03:47;;;;;;;6.70;6.00;;;9.50;99.90;;;;;;5040949;28;20181;-84
2023/03/20 04:06:16;;;;;;;7.20;6.57;;;9.50;99.90;;;;;;5041608;28;20212;-81
2023/03/20 04:08:42;;;;;;;7.70;7.00;;;9.40;99.90;;;;;;5041582;28;20227;-82
2023/03/20 04:11:15;;;;;;;7.40;6.70;;;9.40;99.90;;;;;;5039578;28;20188;-82
2023/03/20 04:13:41;;;;;;;7.33;6.80;;;9.50;99.90;;;;;;5034475;28;20177;-87
2023/03/20 04:16:12;;;;;;;7.73;7.13;;;9.50;99.90;;;;;;5029234;28;20209;-84
2023/03/20 04:18:38;;;;;;;7.07;6.47;;;9.50;99.90;;;;;;5022409;28;20232;-83
2023/03/20 04:21:03;;;;;;;7.50;6.90;;;9.40;99.90;;;;;;5032592;28;20180;-82
2023/03/20 04:23:29;;;;;;;9.00;8.20;;;9.50;99.90;;;;;;5042578;28;20169;-84
2023/03/20 04:25:55;;;;;;;8.27;7.57;;;9.40;99.90;;;;;;5038970;28;20274;-82
2023/03/20 04:28:21;;;;;;;8.00;7.30;;;9.50;99.90;;;;;;5039266;28;20193;-86
2023/03/20 04:30:55;;;;;;;8.70;7.90;;;9.60;99.90;;;;;;5021660;28;20178;-89
2023/03/20 04:33:22;;;;;;;8.20;7.40;;;9.50;99.90;;;;;;5030516;28;20169;-82
2023/03/20 04:35:47;;;;;;;9.23;8.40;;;9.60;99.90;;;;;;5027031;28;20176;-86
2023/03/20 04:38:13;;;;;;;9.10;8.20;;;9.60;99.90;;;;;;5026396;28;20307;-82
2023/03/20 04:40:39;;;;;;;9.90;9.00;;;9.60;99.90;;;;;;5024957;28;20232;-83
2023/03/20 04:43:05;;;;;;;10.13;9.23;;;9.60;99.90;;;;;;5018831;28;20184;-84
2023/03/20 04:45:31;;;;;;;10.77;9.80;;;9.70;99.90;;;;;;5045544;28;20227;-82
2023/03/20 04:47:56;;;;;;;10.80;9.70;;;9.60;99.90;;;;;;5040976;28;20177;-84
2023/03/20 04:50:22;;;;;;;11.33;10.13;;;9.60;99.90;;;;;;5057853;28;20176;-83
2023/03/20 04:52:48;;;;;;;10.70;9.70;;;9.50;99.90;;;;;;5023764;28;20188;-83
2023/03/20 04:55:14;;;;;;;10.70;9.70;;;9.40;99.90;;;;;;5041505;28;20177;-82
2023/03/20 04:57:40;;;;;;;11.43;10.33;;;9.40;99.90;;;;;;5036152;28;20243;-83
2023/03/20 05:00:07;;;;;;;11.40;10.40;;;9.50;99.90;;;;;;5025352;28;20620;-82
2023/03/20 05:02:32;;;;;;;11.10;10.10;;;9.50;99.90;;;;;;5020780;28;20323;-84
2023/03/20 05:04:58;;;;;;;10.90;9.90;;;9.50;99.90;;;;;;5020070;28;20185;-81
2023/03/20 05:07:24;;;;;;;12.27;11.00;;;9.50;99.90;;;;;;5035607;28;20240;-83
2023/03/20 05:09:49;;;;;;;12.27;11.07;;;9.60;99.90;;;;;;5038834;28;20215;-80
2023/03/20 05:12:16;;;;;;;11.67;10.57;;;9.60;99.90;;;;;;5037937;28;20173;-84
2023/03/20 05:14:42;;;;;;;12.90;11.70;;;9.60;99.90;;;;;;5019640;28;20202;-83
2023/03/20 05:17:07;;;;;;;13.00;11.70;;;9.50;99.90;;;;;;5017045;28;20336;-84
2023/03/20 05:19:33;;;;;;;14.13;12.73;;;9.50;99.90;;;;;;5017773;28;20212;-84
2023/03/20 05:22:00;;;;;;;12.93;11.73;;;9.50;99.90;;;;;;5030072;28;20285;-83
2023/03/20 05:24:27;;;;;;;13.53;12.23;;;9.40;99.90;;;;;;5021613;28;20181;-84
2023/03/20 05:26:53;;;;;;;13.63;10.97;;;9.40;99.90;;;;;;5055699;28;20204;-86
2023/03/20 05:29:19;;;;;;;12.53;11.33;;;9.40;99.90;;;;;;5043114;28;20193;-83
2023/03/20 05:31:45;;;;;;;13.43;12.07;;;9.50;99.90;;;;;;5031436;28;20182;-81
2023/03/20 05:34:11;;;;;;;13.23;11.83;;;9.50;99.90;;;;;;5033090;28;20185;-81
2023/03/20 05:36:36;;;;;;;13.47;12.00;;;9.60;99.90;;;;;;5053508;28;20184;-85
2023/03/20 05:39:02;;;;;;;14.60;12.27;;;9.50;99.90;;;;;;5059174;28;20197;-83
2023/03/20 05:41:28;;;;;;;14.13;12.67;;;9.40;99.90;;;;;;5055982;28;20296;-81
2023/03/20 05:43:53;;;;;;;14.60;13.10;;;9.50;99.90;;;;;;5056597;28;20185;-82
2023/03/20 05:46:19;;;;;;;13.80;12.30;;;9.70;99.90;;;;;;5051370;28;20298;-83
2023/03/20 05:48:44;;;;;;;13.63;12.33;;;9.70;99.90;;;;;;5050313;28;20209;-80
2023/03/20 05:51:10;;;;;;;13.60;12.30;;;9.60;99.90;;;;;;5054733;28;20189;-80
2023/03/20 05:53:36;;;;;;;14.07;12.67;;;9.60;99.90;;;;;;5053498;28;20264;-83
2023/03/20 05:56:01;;;;;;;14.80;12.87;;;9.60;99.90;;;;;;5058432;28;20213;-84
2023/03/20 05:58:27;;;;;;;14.33;12.77;;;9.60;99.90;;;;;;5062729;28;20586;-85
2023/03/20 06:00:53;;;;;;;13.90;12.60;;;9.70;99.90;;;;;;5037699;28;20205;-83
2023/03/20 06:03:18;;;;;;;15.93;13.87;;;9.70;99.90;;;;;;5045386;28;20181;-83
2023/03/20 06:05:44;;;;;;;13.77;12.47;;;9.60;99.90;;;;;;5036153;28;20201;-84
2023/03/20 06:08:09;;;;;;;15.03;13.63;;;9.60;99.90;;;;;;5026534;28;20194;-85
2023/03/20 06:10:35;;;;;;;15.13;13.63;;;9.70;99.90;;;;;;5027244;28;20232;-85
2023/03/20 06:13:01;;;;;;;15.33;13.73;;;9.70;99.90;;;;;;5039828;28;20228;-85
2023/03/20 06:15:27;;;;;;;15.77;14.37;;;9.60;99.90;;;;;;5044939;28;20177;-82
2023/03/20 06:17:54;;;;;;;15.43;13.77;;;9.70;99.90;;;;;;5044993;28;20477;-85
2023/03/20 06:20:20;;;;;;;15.93;14.43;;;9.80;99.90;;;;;;5050706;28;20423;-82
2023/03/20 06:22:45;;;;;;;16.43;14.93;;;9.80;99.90;;;;;;5065738;28;20187;-84
2023/03/20 06:25:11;;;;;;;15.90;14.20;;;9.80;99.90;;;;;;5066607;28;20196;-84
2023/03/20 06:27:38;;;;;;;15.20;13.60;;;9.80;99.90;;;;;;5042536;28;20239;-85
2023/03/20 06:30:04;;;;;;;16.03;14.43;;;9.80;99.90;;;;;;5046296;28;20213;-81
2023/03/20 06:32:30;;;;;;;15.43;13.83;;;9.80;99.90;;;;;;5042824;28;20165;-82
2023/03/20 06:34:56;;;;;;;16.13;13.20;;;10.00;99.90;;;;;;5053709;28;20234;-80
2023/03/20 06:37:22;;;;;;;13.40;12.13;;;10.00;99.90;;;;;;5043548;28;20185;-82
2023/03/20 06:39:47;;;;;;;13.80;12.47;;;9.90;99.90;;;;;;5040560;28;20651;-85
2023/03/20 06:42:13;;;;;;;16.37;14.77;;;9.90;99.90;;;;;;5049745;28;20182;-86
2023/03/20 06:44:39;;;;;;;16.10;13.97;;;9.90;99.90;;;;;;5058944;28;20291;-82
2023/03/20 06:47:05;;;;;;;16.00;13.07;;;9.80;99.90;;;;;;5046696;28;20205;-82
2023/03/20 06:49:31;;;;;;;15.73;13.83;;;9.90;99.90;;;;;;5038660;28;20487;-83
2023/03/20 06:51:58;;;;;;;17.20;13.87;;;9.90;99.90;;;;;;5030738;28;20184;-83
2023/03/20 06:54:24;;;;;;;16.50;14.70;;;9.80;99.90;;;;;;5047211;28;20178;-85
2023/03/20 06:56:50;;;;;;;15.03;13.40;;;9.70;99.90;;;;;;5046336;28;20191;-84
2023/03/20 06:59:16;;;;;;;15.47;13.60;;;9.90;99.90;;;;;;5045490;28;20240;-84
2023/03/20 07:01:42;;;;;;;17.70;14.53;;;9.80;99.90;;;;;;5024067;28;20193;-82
2023/03/20 07:04:08;;;;;;;18.17;13.97;;;9.90;99.90;;;;;;5032848;28;20195;-84
2023/03/20 07:06:33;;;;;;;15.47;13.93;;;10.00;99.90;;;;;;5035996;28;20219;-84
2023/03/20 07:09:00;;;;;;;15.50;13.90;;;9.90;99.90;;;;;;5038404;28;20188;-85
2023/03/20 07:11:27;;;;;;;14.57;13.00;;;9.80;99.90;;;;;;5038140;28;20192;-84
2023/03/20 07:13:53;;;;;;;15.73;14.10;;;9.80;99.90;;;;;;5034006;28;20193;-84
2023/03/20 07:16:18;;;;;;;15.27;13.67;;;9.80;99.90;;;;;;5037649;28;20208;-84
2023/03/20 07:18:44;;;;;;;15.07;12.97;;;9.90;99.90;;;;;;5042115;28;20208;-84
2023/03/20 07:21:17;;;;;;;16.30;12.90;;;9.90;99.90;;;;;;5018238;28;20280;-81
2023/03/20 07:23:43;;;;;;;14.87;13.37;;;9.90;99.90;;;;;;5040402;28;20855;-83
2023/03/20 07:26:09;;;;;;;14.07;12.67;;;9.90;99.90;;;;;;5039041;28;20200;-80
2023/03/20 07:28:34;;;;;;;15.27;12.43;;;9.90;99.90;;;;;;5037845;28;20718;-82
2023/03/20 07:31:00;;;;;;;15.33;12.53;;;9.80;99.90;;;;;;5034181;28;20710;-80
2023/03/20 07:33:26;;;;;;;13.57;12.23;;;9.90;99.90;;;;;;5041948;28;20720;-84
2023/03/20 07:35:55;;;;;;;13.50;12.10;;;9.90;99.90;;;;;;5043367;28;20303;-83
2023/03/20 07:38:21;;;;;;;14.43;12.87;;;9.90;99.90;;;;;;5043462;28;20335;-83
2023/03/20 07:40:47;;;;;;;14.87;12.73;;;9.80;99.90;;;;;;5041355;28;20196;-81
2023/03/20 07:43:17;;;;;;;15.23;13.70;;;9.80;99.90;;;;;;5042733;28;20177;-83
2023/03/20 07:45:42;;;;;;;18.27;12.97;;;9.80;99.90;;;;;;5042343;28;20792;-86
2023/03/20 07:48:08;;;;;;;14.30;12.90;;;9.80;99.90;;;;;;5043720;28;20193;-83
2023/03/20 07:50:33;;;;;;;14.07;12.57;;;9.90;99.90;;;;;;5039188;28;20235;-81
2023/03/20 07:52:59;;;;;;;15.77;12.87;;;10.00;99.90;;;;;;5023514;28;20188;-79
2023/03/20 07:55:25;;;;;;;14.73;13.23;;;10.20;99.90;;;;;;5023355;28;20258;-86
2023/03/20 07:57:51;;;;;;;13.37;12.07;;;10.20;99.90;;;;;;5022885;28;20189;-81
2023/03/20 08:00:18;;;;;;;14.97;13.37;;;10.30;99.90;;;;;;5022541;28;20197;-82
2023/03/20 08:02:44;;;;;;;12.90;11.60;;;10.60;99.90;;;;;;5038003;28;20231;-80
2023/03/20 08:05:10;;;;;;;13.00;11.80;;;10.80;95.90;;;;;;5039086;28;20189;-87
2023/03/20 08:07:35;;;;;;;15.30;12.20;;;10.60;98.90;;;;;;5040065;28;20176;-85
2023/03/20 08:10:02;;;;;;;14.03;11.77;;;10.80;97.90;;;;;;5037917;28;20203;-83
2023/03/20 08:12:28;;;;;;;12.03;10.83;;;10.70;96.10;;;;;;5040943;28;20169;-84
2023/03/20 08:14:53;;;;;;;14.17;12.70;;;10.60;96.80;;;;;;5038038;28;20192;-85
2023/03/20 08:17:19;;;;;;;15.00;12.13;;;10.50;97.70;;;;;;5030813;28;20200;-80
2023/03/20 08:19:44;;;;;;;13.33;12.13;;;10.50;97.80;;;;;;5040882;28;20596;-82
2023/03/20 08:22:10;;;;;;;12.23;11.03;;;10.40;98.00;;;;;;5044977;28;20184;-79
2023/03/20 08:24:36;;;;;;;12.53;11.23;;;10.50;97.80;;;;;;5042962;28;20242;-82
2023/03/20 08:27:02;;;;;;;11.80;10.70;;;10.80;96.90;;;;;;5042688;28;20204;-83
2023/03/20 08:29:28;;;;;;;12.60;11.27;;;10.60;96.50;;;;;;5040480;28;20192;-82
2023/03/20 08:31:54;;;;;;;11.87;10.77;;;10.60;96.90;;;;;;5043338;28;20240;-82
2023/03/20 08:34:20;;;;;;;11.83;10.63;;;10.90;94.80;;;;;;5051379;28;20185;-83
2023/03/20 08:36:46;;;;;;;12.60;11.17;;;10.90;94.10;;;;;;5054250;28;20346;-84
2023/03/20 08:39:11;;;;;;;11.43;10.23;;;10.90;94.20;;;;;;5044422;28;20207;-83
2023/03/20 08:41:37;;;;;;;11.87;10.77;;;10.90;93.10;;;;;;5044641;28;20181;-82
2023/03/20 08:44:04;;;;;;;11.80;10.50;;;11.10;91.60;;;;;;5045091;28;20247;-84
2023/03/20 08:46:30;;;;;;;12.00;10.90;;;10.90;92.50;;;;;;5044588;28;20212;-80
2023/03/20 08:48:57;;;;;;;13.23;11.70;;;11.00;93.20;;;;;;5016405;28;20503;-84
2023/03/20 08:51:23;;;;;;;11.10;10.00;;;11.10;93.60;;;;;;5024940;28;20685;-80
2023/03/20 08:53:49;;;;;;;11.90;10.73;;;11.10;90.70;;;;;;5025414;28;20174;-82
2023/03/20 08:56:15;;;;;;;10.87;9.33;;;11.20;89.90;;;;;;5004544;28;20192;-78
2023/03/20 08:58:41;;;;;;;10.50;9.50;;;11.10;90.60;;;;;;5018624;28;20244;-84
2023/03/20 09:01:07;;;;;;;11.20;10.10;;;11.20;90.40;;;;;;5020403;28;20181;-82
2023/03/20 09:03:34;;;;;;;10.00;9.00;;;11.10;92.20;;;;;;5018672;28;20177;-85
2023/03/20 09:05:59;;;;;;;11.03;10.03;;;11.10;90.70;;;;;;5018537;28;20193;-86
2023/03/20 09:08:25;;;;;;;12.40;10.20;;;10.90;92.70;;;;;;5021355;28;20196;-81
2023/03/20 09:10:50;;;;;;;9.63;8.73;;;11.00;91.50;;;;;;5040288;28;20656;-82
2023/03/20 09:13:16;;;;;;;9.37;8.53;;;11.10;91.40;;;;;;5032818;28;20177;-82
2023/03/20 09:15:42;;;;;;;8.77;7.97;;;11.30;89.80;;;;;;5022383;28;20181;-81
2023/03/20 09:18:08;;;;;;;8.23;7.43;;;11.40;88.60;;;;;;5024407;28;20205;-85
2023/03/20 09:20:34;;;;;;;8.53;7.73;;;11.70;88.70;;;;;;5032493;28;20184;-80
2023/03/20 09:22:59;;;;;;;8.93;8.03;;;11.80;83.60;;;;;;5043390;28;20184;-84
2023/03/20 09:25:25;;;;;;;9.40;8.47;;;11.60;84.20;;;;;;5044047;28;20260;-84
2023/03/20 09:27:55;;;;;;;10.00;9.00;;;11.40;87.50;;;;;;5016485;28;20185;-82
2023/03/20 09:30:22;;;;;;;9.10;8.30;;;11.40;89.00;;;;;;5043721;28;20298;-82
2023/03/20 09:32:49;;;;;;;8.57;7.77;;;11.40;86.30;;;;;;5057824;28;20178;-84
2023/03/20 09:35:15;;;;;;;10.00;9.10;;;11.30;87.90;;;;;;5048396;28;20245;-82
2023/03/20 09:37:40;;;;;;;9.00;8.10;;;11.30;88.00;;;;;;5047491;28;20166;-80
2023/03/20 09:40:09;;;;;;;8.50;7.70;;;11.40;87.80;;;;;;5047854;28;20174;-80
2023/03/20 09:42:52;;;;;;;9.97;7.83;;;11.60;84.90;;;;;;5047250;28;20177;-83
2023/03/20 09:45:38;;;;;;;7.53;6.83;;;12.00;83.20;;;;;;5029549;28;20254;-81
2023/03/20 09:48:13;;;;;;;8.00;7.20;;;12.10;78.70;;;;;;5046949;28;20199;-84
2023/03/20 09:51:00;;;;;;;8.13;7.33;;;12.30;78.70;;;;;;5047408;28;20182;-82
2023/03/20 09:53:33;;;;;;;8.33;7.27;;;12.60;77.30;;;;;;5045656;28;20167;-80
2023/03/20 09:55:59;;;;;;;9.37;7.90;;;12.80;76.20;;;;;;5046057;28;20193;-82
2023/03/20 09:58:36;;;;;;;9.30;7.80;;;12.90;78.20;;;;;;5045416;28;20901;-82
2023/03/20 10:01:04;;;;;;;8.83;6.87;;;13.10;75.80;;;;;;5040697;28;20200;-81
2023/03/20 10:03:46;;;;;;;8.80;6.90;;;13.30;74.40;;;;;;5031329;28;20199;-81
2023/03/20 10:06:15;;;;;;;7.87;7.13;;;12.80;73.80;;;;;;5031937;28;20251;-81
2023/03/20 10:08:41;;;;;;;7.47;6.77;;;12.50;78.50;;;;;;5045377;28;20206;-84
2023/03/20 10:11:14;;;;;;;8.63;6.60;;;12.20;79.20;;;;;;5045308;28;20180;-84
2023/03/20 10:14:05;;;;;;;6.17;5.67;;;12.30;74.80;;;;;;5047342;28;20967;-83
2023/03/20 10:16:52;;;;;;;5.70;5.13;;;12.20;71.90;;;;;;5036700;28;20182;-79
2023/03/20 10:19:52;;;;;;;5.93;5.33;;;12.20;70.90;;;;;;5028048;28;20198;-84
2023/03/20 10:22:24;;;;;;;7.43;5.70;;;12.30;72.50;;;;;;5026762;28;20186;-85
2023/03/20 10:24:59;;;;;;;6.80;5.93;;;12.20;74.10;;;;;;5027306;28;20237;-81
2023/03/20 10:27:42;;;;;;;6.73;5.67;;;12.30;73.00;;;;;;5049070;28;20187;-81
2023/03/20 10:30:32;;;;;;;7.57;6.13;;;12.40;70.60;;;;;;5050676;28;20177;-81
2023/03/20 10:33:16;;;;;;;6.90;5.83;;;12.50;70.80;;;;;;5045261;28;20169;-84
2023/03/20 10:35:53;;;;;;;7.63;5.97;;;12.40;70.70;;;;;;5026966;28;20184;-83
2023/03/20 10:38:31;;;;;;;8.37;5.60;;;12.40;71.50;;;;;;5027129;28;20216;-83
2023/03/20 10:40:58;;;;;;;5.90;5.40;;;12.60;70.60;;;;;;5025801;28;20184;-82
2023/03/20 10:43:31;;;;;;;7.23;6.60;;;12.70;70.20;;;;;;5027134;28;20514;-81
2023/03/20 10:46:19;;;;;;;6.93;6.23;;;13.50;68.80;;;;;;5025594;28;20244;-80
2023/03/20 10:48:51;;;;;;;7.70;7.00;;;13.50;67.70;;;;;;5038252;28;20204;-79
2023/03/20 10:51:20;;;;;;;8.33;6.30;;;13.60;66.80;;;;;;5044781;28;20168;-83
2023/03/20 10:54:00;;;;;;;7.40;6.63;;;13.60;68.10;;;;;;5043710;28;20177;-83
2023/03/20 10:56:35;;;;;;;7.20;6.60;;;13.60;67.40;;;;;;5042822;28;20177;-82
2023/03/20 10:59:31;;;;;;;7.03;6.33;;;13.60;67.00;;;;;;5043071;28;20334;-84
2023/03/20 11:01:57;;;;;;;8.87;6.30;;;13.50;67.80;;;;;;5042991;28;20209;-86
2023/03/20 11:04:22;;;;;;;8.20;5.70;;;13.60;66.80;;;;;;5043929;28;20256;-86
2023/03/20 11:07:00;;;;;;;12.60;5.77;;;13.50;64.60;;;;;;5043870;28;20245;-82
2023/03/20 11:09:28;;;;;;;6.90;6.23;;;13.40;64.60;;;;;;5046052;28;20200;-82
2023/03/20 11:11:57;;;;;;;6.33;5.03;;;13.30;66.00;;;;;;5028461;28;20187;-81
2023/03/20 11:14:34;;;;;;;6.90;6.13;;;13.20;66.80;;;;;;5045525;28;20276;-80
2023/03/20 11:17:02;;;;;;;6.40;5.80;;;13.40;66.10;;;;;;5045780;28;20220;-81
2023/03/20 11:19:33;;;;;;;5.67;5.17;;;14.00;64.30;;;;;;5028483;28;20216;-82
2023/03/20 11:22:05;;;;;;;6.40;5.90;;;14.40;63.60;;;;;;5049051;28;20201;-81
2023/03/20 11:24:39;;;;;;;8.90;6.40;;;14.40;61.40;;;;;;5057458;28;20236;-82
2023/03/20 11:27:17;;;;;;;8.53;6.43;;;14.10;64.10;;;;;;5050656;28;20213;-83
2023/03/20 11:29:47;;;;;;;5.80;5.30;;;13.90;64.10;;;;;;5043514;28;20206;-82
2023/03/20 11:32:30;;;;;;;6.43;5.63;;;13.90;64.70;;;;;;5033355;28;20579;-82
2023/03/20 11:35:18;;;;;;;7.10;5.80;;;14.30;63.40;;;;;;5046028;28;20173;-86
2023/03/20 11:37:46;;;;;;;5.80;5.30;;;14.10;62.60;;;;;;5047283;28;20196;-84
2023/03/20 11:40:16;;;;;;;6.50;5.77;;;14.20;62.30;;;;;;5045750;28;20181;-82
2023/03/20 11:43:11;;;;;;;6.03;5.40;;;14.00;62.50;;;;;;5046570;28;20181;-84
2023/03/20 11:45:43;;;;;;;6.67;5.97;;;13.80;64.00;;;;;;5030265;28;20219;-85
2023/03/20 11:48:55;;;;;;;6.67;6.07;;;14.00;64.30;;;;;;5025811;28;20510;-82
2023/03/20 11:51:21;;;;;;;6.37;5.77;;;13.90;63.40;;;;;;5015001;28;20206;-85
2023/03/20 11:53:47;;;;;;;6.33;5.27;;;13.90;62.80;;;;;;5022680;28;20190;-83
2023/03/20 11:56:27;;;;;;;6.53;5.93;;;14.10;63.00;;;;;;5007103;28;20191;-82
2023/03/20 11:59:08;;;;;;;6.40;5.80;;;14.30;62.30;;;;;;5030640;28;20226;-84
2023/03/20 12:01:50;;;;;;;8.67;7.83;;;14.50;63.20;;;;;;5043454;28;20164;-82
2023/03/20 12:04:16;;;;;;;6.37;5.50;;;14.60;60.20;;;;;;5045714;28;20194;-81
2023/03/20 12:07:05;;;;;;;5.87;5.37;;;14.60;59.10;;;;;;5046183;28;20209;-83
2023/03/20 12:09:53;;;;;;;8.40;5.87;;;14.80;60.40;;;;;;5045500;28;20261;-79
2023/03/20 12:12:41;;;;;;;6.73;6.13;;;14.60;60.60;;;;;;5027829;28;20196;-82
2023/03/20 12:15:22;;;;;;;6.53;5.93;;;14.60;59.20;;;;;;5026170;28;20188;-82
2023/03/20 12:18:01;;;;;;;6.67;5.93;;;14.80;59.60;;;;;;5026134;28;20164;-81
2023/03/20 12:20:49;;;;;;;6.27;5.67;;;15.00;58.70;;;;;;5052705;28;20186;-82
2023/03/20 12:23:33;;;;;;;6.17;5.57;;;14.90;58.40;;;;;;5045170;28;20219;-83
2023/03/20 12:26:03;;;;;;;8.57;7.77;;;14.70;57.90;;;;;;5044543;28;20597;-86
2023/03/20 12:28:55;;;;;;;5.80;5.30;;;14.90;60.40;;;;;;5030780;28;20203;-85
2023/03/20 12:31:30;;;;;;;5.80;5.27;;;15.10;58.80;;;;;;5025291;28;20235;-81
2023/03/20 12:34:23;;;;;;;7.00;6.40;;;15.20;57.10;;;;;;5026494;28;20187;-83
2023/03/20 12:36:56;;;;;;;5.57;5.07;;;15.80;54.60;;;;;;5025351;28;20249;-82
2023/03/20 12:39:27;;;;;;;5.03;4.63;;;16.40;53.50;;;;;;5025469;28;20236;-82
2023/03/20 12:42:06;;;;;;;4.97;4.57;;;16.50;50.70;;;;;;5024807;28;20184;-83
2023/03/20 12:44:35;;;;;;;4.30;3.90;;;16.60;51.20;;;;;;5024367;28;20189;-86
2023/03/20 12:47:14;;;;;;;4.33;3.83;;;16.20;51.40;;;;;;5022234;28;20235;-83
2023/03/20 12:49:56;;;;;;;10.53;9.63;;;15.90;50.90;;;;;;5021578;28;20205;-85
2023/03/20 12:52:44;;;;;;;4.83;4.37;;;15.60;52.10;;;;;;5020553;28;20188;-83
2023/03/20 12:55:48;;;;;;;4.73;4.33;;;15.40;53.90;;;;;;5020156;28;20184;-82
2023/03/20 12:58:13;;;;;;;5.27;4.70;;;15.20;52.70;;;;;;5008793;28;20224;-85
2023/03/20 13:00:53;;;;;;;4.90;4.40;;;14.70;55.50;;;;;;5019926;28;20200;-84
2023/03/20 13:03:52;;;;;;;26.27;18.93;;;14.70;55.40;;;;;;5021518;28;20180;-82